Portada
METAR-TAF:

METAR-TAF

Aeroports :

Rahim Yar Khan, Pakistan

latitud: 28-23-02N, longitud: 70-16-47E, altitud: 83 m

METAR: manca

Hora: 03:25 (22:25 UTC)

Pronòstic

L'informe es va fer fa 6 hores i 30 minuts, a les 15:55 UTC
Pronòstic vàlid del 21 a les 18 UTC al 22 a les 12 UTC
Vent 5 kt del Sud
Visibilitat: 4000 m
fum
A partir de les 22 a les 0700 UTC
Vent 10 kt del Sud-Oest
Visibilitat: 6000 m
Escasses núvols a una alçada de 12000 ft

TAF: OPRK 211555Z 2118/2212 18005KT 4000 FU NSC TN20/2201Z TX35/2210Z FM220700 23010KT 6000 FEW120

Observacions i pronòstics meteorològics de més de 4000 aeroports (METAR i TAF).

Les estacions disponibles són els punts grocs i vermells al mapa.

Posi el ratolí al punt desitjat per veure el nom de l'estació.

Feu clic per veure les observacions i els pronòstics meteorològics.

Per canviar el mapa: feu clic els botons verds amb una creu de color negre per apropar; al botó verd amb un guió per allunyar la imatge; o en les fletxes verdes per a mapes adjacents.


METAR-TAF: